Aérodrome :
LOGIN :

S'inscrire | Disclaimer

   EN    FR    IT 

 










Légende :    VFR   VFR Marginal   IFR   IFR Intensif   IFR Très Intensif
Visi : 
Plafond : 
>= 8 km
>= 3000ft
5 à 8 km
1000 à 3000 ft
1500m à 5 km
500 à 1000 ft
800 à 1500m
200 à 500 ft
< 800m
< 200 ft
Symboles :   Orages  Brouillard  Fortes neiges  Fortes précipitations  Vent > 20 kt
SIGMETs :   Divers  Orages  Givrage  Turbulence  Onde Orograph.  Cendres Volcan.






- Altitude de l'aérodrome : 357 ft
- Code IATA : TUF


LFOT - Tours

DERNIER METAR :
  • 180030Z AUTO 27002KT 9999 FEW036 SCT140 03/02 Q1029 TEMPO 3000 BR

METARs EXPIRÉS :
  • 180000Z AUTO 25004KT 9999 BKN038 BKN160 OVC180 03/02 Q1029 NOSIG
  • 172330Z AUTO 32002KT 9999 OVC038 03/02 Q1029 NOSIG
  • 172300Z AUTO 00000KT 9999 BKN038 03/02 Q1029 NOSIG
  • 172230Z AUTO 01001KT 8000 OVC039 03/01 Q1029 NOSIG
  • 172200Z AUTO 29003KT 9999 BKN040 04/02 Q1029 NOSIG

TAF TAF LFOT
Valide du 18 à 00h jusqu'au 19 à 00h UTC


172300Z 1800/1824 VRB03KT 9999 SCT030
PROB40
TEMPO 1802/1809 3000 BR
PROB30
TEMPO 1803/1809 0600 FG VV///
BECMG 1811/1814 20010KT



MET'MAP, la Météo Aéronautique d'un coup d'oeil ! - Copyright ORBIFLY Décembre 2007 - Disclaimer

ORBIFLY MET'MAP TEAM :

Programmation & Développement : Alexandra Zaïnal
Sur une idée originale de : Baudouin d'Aumeries
Assistance à la programmation : Marc-Olivier Méhu
Soutien technique & logistique : Manuel Goepfert

Contact : metmap@orbifly.com




SOURCES & CREDITS :

   NOAA